Time;durP1;ratioP1;P1;durP2;ratioP2;P2;SDS_P1;SDS_P2;PMS_P1;PMS_P2;Temp;Humidity;BMP_temperature;BMP_pressure;BME280_temperature;BME280_humidity;BME280_pressure;Samples;Min_cycle;Max_cycle;Signal;HPM_P1;HPM_P2
2024/02/27 00:00:35;;;;;;;1.52;0.50;;;;;;;7.85;100.00;97857.25;5051137;28;20220;-76
2024/02/27 00:03:01;;;;;;;1.10;0.60;;;;;;;7.82;100.00;97869.25;5048215;28;20080;-76
2024/02/27 00:05:26;;;;;;;1.27;0.63;;;;;;;7.83;100.00;97868.25;5054583;28;20025;-76
2024/02/27 00:07:52;;;;;;;2.72;0.95;;;;;;;7.76;100.00;97850.44;5044836;28;20036;-77
2024/02/27 00:10:18;;;;;;;1.52;1.20;;;;;;;7.88;100.00;97870.28;5045213;28;20024;-76
2024/02/27 00:12:44;;;;;;;2.67;1.08;;;;;;;7.79;100.00;97845.44;5056914;28;20056;-77
2024/02/27 00:15:09;;;;;;;3.40;1.27;;;;;;;7.84;100.00;97858.31;5051481;28;20344;-77
2024/02/27 00:17:35;;;;;;;1.73;1.13;;;;;;;7.77;100.00;97852.09;5046476;28;20100;-77
2024/02/27 00:20:00;;;;;;;1.48;1.05;;;;;;;7.59;100.00;97837.38;5045971;28;20083;-78
2024/02/27 00:22:25;;;;;;;2.95;1.50;;;;;;;7.66;100.00;97848.16;5050534;28;20035;-77
2024/02/27 00:24:50;;;;;;;2.75;1.60;;;;;;;7.72;100.00;97862.66;5051402;28;20026;-78
2024/02/27 00:27:16;;;;;;;2.10;1.30;;;;;;;7.60;100.00;97857.91;5061292;28;20060;-78
2024/02/27 00:29:41;;;;;;;3.60;1.88;;;;;;;7.71;100.00;97872.59;5061105;28;20022;-79
2024/02/27 00:32:07;;;;;;;3.03;1.90;;;;;;;7.58;100.00;97854.59;5057167;28;20093;-77
2024/02/27 00:34:32;;;;;;;2.70;1.60;;;;;;;7.60;100.00;97887.50;5054088;28;20021;-77
2024/02/27 00:36:57;;;;;;;4.50;2.33;;;;;;;7.57;100.00;97882.56;5062126;28;20053;-78
2024/02/27 00:39:23;;;;;;;4.43;2.17;;;;;;;7.68;100.00;97900.75;5058301;28;20320;-78
2024/02/27 00:41:49;;;;;;;4.85;2.78;;;;;;;7.64;100.00;97899.50;5058867;28;20021;-76
2024/02/27 00:44:15;;;;;;;5.93;2.92;;;;;;;7.57;100.00;97901.38;5046771;28;20036;-77
2024/02/27 00:46:42;;;;;;;5.65;2.95;;;;;;;7.32;100.00;97884.19;5048264;28;20378;-77
2024/02/27 00:49:08;;;;;;;6.03;3.10;;;;;;;7.31;100.00;97893.25;5048176;28;20032;-77
2024/02/27 00:51:33;;;;;;;6.72;3.47;;;;;;;7.30;100.00;97887.06;5055417;28;20029;-78
2024/02/27 00:53:58;;;;;;;8.43;4.10;;;;;;;7.34;100.00;97903.66;5046016;28;20348;-78
2024/02/27 00:56:24;;;;;;;8.02;4.05;;;;;;;7.41;100.00;97915.22;5051633;28;20354;-78
2024/02/27 00:58:49;;;;;;;7.45;4.05;;;;;;;7.19;100.00;97891.19;5044994;28;20032;-78
2024/02/27 01:01:14;;;;;;;8.98;4.38;;;;;;;7.19;100.00;97907.31;5045985;28;20075;-79
2024/02/27 01:03:40;;;;;;;8.88;4.97;;;;;;;7.19;100.00;97925.34;5045236;28;20344;-78
2024/02/27 01:06:07;;;;;;;8.88;4.70;;;;;;;7.19;100.00;97930.72;5049686;28;20324;-78
2024/02/27 01:08:32;;;;;;;8.15;4.45;;;;;;;7.14;100.00;97920.56;5047463;28;20026;-79
2024/02/27 01:10:58;;;;;;;8.48;4.50;;;;;;;7.21;100.00;97937.56;5047602;28;20097;-77
2024/02/27 01:13:23;;;;;;;9.13;4.65;;;;;;;7.18;100.00;97921.81;5049791;28;20029;-79
2024/02/27 01:15:48;;;;;;;7.97;4.20;;;;;;;7.19;100.00;97928.84;5050623;28;20067;-78
2024/02/27 01:18:13;;;;;;;10.88;4.20;;;;;;;7.08;100.00;97926.75;5045488;28;20206;-78
2024/02/27 01:20:39;;;;;;;9.50;4.57;;;;;;;7.11;100.00;97937.09;5045902;28;20022;-78
2024/02/27 01:23:04;;;;;;;8.48;4.10;;;;;;;7.16;100.00;97933.81;5043846;28;20017;-78
2024/02/27 01:25:30;;;;;;;8.63;4.80;;;;;;;7.13;100.00;97936.91;5047161;28;20028;-78
2024/02/27 01:27:55;;;;;;;9.10;4.15;;;;;;;7.08;100.00;97940.19;5054325;28;20028;-78
2024/02/27 01:30:20;;;;;;;9.52;3.95;;;;;;;7.07;100.00;97935.84;5066658;28;20025;-77
2024/02/27 01:32:46;;;;;;;6.30;3.85;;;;;;;7.14;100.00;97925.94;5046355;28;20061;-78
2024/02/27 01:35:11;;;;;;;7.75;3.60;;;;;;;7.10;100.00;97905.88;5045693;28;20041;-77
2024/02/27 01:37:36;;;;;;;6.90;3.33;;;;;;;7.21;100.00;97924.09;5047194;28;20022;-78
2024/02/27 01:40:04;;;;;;;6.63;3.53;;;;;;;7.21;100.00;97926.78;5046488;28;20028;-78
2024/02/27 01:42:29;;;;;;;12.90;3.80;;;;;;;7.00;100.00;97886.59;5045044;28;20100;-78
2024/02/27 01:44:54;;;;;;;7.53;3.80;;;;;;;7.11;100.00;97904.81;5045612;28;20228;-78
2024/02/27 01:47:21;;;;;;;7.45;3.75;;;;;;;7.27;100.00;97930.53;5044559;28;20036;-78
2024/02/27 01:49:48;;;;;;;6.32;3.25;;;;;;;7.10;100.00;97896.94;5044383;28;20028;-78
2024/02/27 01:52:14;;;;;;;7.78;3.58;;;;;;;7.32;100.00;97927.22;5045013;28;20320;-78
2024/02/27 01:54:42;;;;;;;6.95;3.63;;;;;;;7.30;100.00;97924.72;5042588;28;20017;-78
2024/02/27 01:57:08;;;;;;;10.77;3.58;;;;;;;7.14;100.00;97899.03;5045619;28;20021;-79
2024/02/27 01:59:33;;;;;;;6.47;3.53;;;;;;;7.08;100.00;97894.47;5051626;28;20361;-79
2024/02/27 02:02:00;;;;;;;8.60;3.67;;;;;;;7.17;100.00;97906.69;5056493;28;20336;-78
2024/02/27 02:04:27;;;;;;;8.80;3.55;;;;;;;7.25;100.00;97922.63;5048129;28;20056;-78
2024/02/27 02:06:52;;;;;;;6.80;3.88;;;;;;;7.10;100.00;97886.19;5044274;28;20048;-77
2024/02/27 02:09:18;;;;;;;8.02;3.85;;;;;;;7.15;100.00;97889.94;5050152;28;20017;-77
2024/02/27 02:11:45;;;;;;;7.85;4.30;;;;;;;6.97;100.00;97884.31;5043813;28;20449;-77
2024/02/27 02:14:10;;;;;;;10.65;4.15;;;;;;;6.98;100.00;97894.84;5044413;28;20021;-77
2024/02/27 02:16:36;;;;;;;6.80;3.95;;;;;;;6.98;100.00;97900.25;5048184;28;20100;-77
2024/02/27 02:19:01;;;;;;;9.77;4.10;;;;;;;7.05;100.00;97916.41;5048443;28;20033;-76
2024/02/27 02:21:27;;;;;;;9.35;4.05;;;;;;;7.10;100.00;97894.25;5044106;28;20071;-77
2024/02/27 02:23:53;;;;;;;10.15;4.82;;;;;;;7.07;100.00;97903.56;5049333;28;20029;-76
2024/02/27 02:26:19;;;;;;;7.75;3.63;;;;;;;7.03;100.00;97902.31;5042658;28;20036;-77
2024/02/27 02:28:45;;;;;;;7.32;4.00;;;;;;;7.10;100.00;97935.47;5044057;28;20428;-76
2024/02/27 02:31:11;;;;;;;9.20;4.15;;;;;;;7.04;100.00;97928.19;5047927;28;20063;-77
2024/02/27 02:33:39;;;;;;;10.00;4.47;;;;;;;6.87;100.00;97903.53;5042450;28;20033;-77
2024/02/27 02:36:05;;;;;;;8.23;4.72;;;;;;;6.95;100.00;97922.16;5041973;28;20032;-77
2024/02/27 02:38:30;;;;;;;9.27;4.68;;;;;;;6.86;100.00;97919.84;5042945;28;20227;-77
2024/02/27 02:40:56;;;;;;;8.05;4.45;;;;;;;6.80;100.00;97925.00;5044003;28;20224;-77
2024/02/27 02:43:21;;;;;;;8.07;4.15;;;;;;;6.68;100.00;97902.44;5044817;28;20033;-77
2024/02/27 02:45:46;;;;;;;7.95;4.55;;;;;;;6.89;100.00;97922.97;5045435;28;20024;-78
2024/02/27 02:48:11;;;;;;;8.52;4.60;;;;;;;6.98;100.00;97939.75;5045202;28;20316;-76
2024/02/27 02:50:37;;;;;;;8.82;4.90;;;;;;;7.02;100.00;97938.31;5040502;28;20060;-76
2024/02/27 02:53:02;;;;;;;9.75;5.05;;;;;;;6.84;100.00;97912.00;5043717;28;20093;-76
2024/02/27 02:55:28;;;;;;;11.00;4.82;;;;;;;6.87;100.00;97926.91;5042914;28;20313;-77
2024/02/27 02:57:55;;;;;;;11.38;5.28;;;;;;;6.86;100.00;97931.41;5039748;28;20033;-76
2024/02/27 03:00:20;;;;;;;9.73;5.03;;;;;;;6.90;100.00;97934.56;5043293;28;20336;-77
2024/02/27 03:02:45;;;;;;;9.35;5.95;;;;;;;6.84;100.00;97929.97;5042561;28;20030;-78
2024/02/27 03:05:12;;;;;;;8.85;4.40;;;;;;;6.98;100.00;97956.72;5050270;28;20040;-78
2024/02/27 03:07:38;;;;;;;12.40;6.38;;;;;;;6.80;100.00;97922.31;5042287;28;20026;-78
2024/02/27 03:10:04;;;;;;;11.50;5.85;;;;;;;6.90;100.00;97959.56;5040449;28;20056;-76
2024/02/27 03:12:29;;;;;;;13.50;5.25;;;;;;;6.89;100.00;97962.47;5042180;28;20128;-76
2024/02/27 03:14:54;;;;;;;11.30;5.57;;;;;;;6.86;100.00;97970.94;5045882;28;20093;-77
2024/02/27 03:17:20;;;;;;;12.10;5.75;;;;;;;6.79;100.00;97974.44;5047228;28;20021;-77
2024/02/27 03:19:45;;;;;;;11.25;5.03;;;;;;;6.77;100.00;97964.91;5048706;28;20022;-76
2024/02/27 03:22:11;;;;;;;10.60;5.63;;;;;;;6.79;100.00;97971.75;5053078;28;20021;-76
2024/02/27 03:24:37;;;;;;;9.13;5.05;;;;;;;6.94;100.00;97986.88;5049830;28;20151;-76
2024/02/27 03:27:03;;;;;;;11.10;5.63;;;;;;;6.84;100.00;97976.53;5045383;28;20028;-76
2024/02/27 03:31:59;;;;;;;11.85;5.55;;;;;;;6.88;100.00;97988.53;5052899;28;20029;-83
2024/02/27 03:34:26;;;;;;;12.07;4.72;;;;;;;6.50;100.00;97934.38;5034316;28;20055;-84
2024/02/27 03:36:53;;;;;;;10.52;5.75;;;;;;;6.30;100.00;97897.47;5035913;28;20216;-82
2024/02/27 03:39:19;;;;;;;13.32;5.75;;;;;;;6.88;100.00;98009.22;5037356;28;20089;-83
2024/02/27 03:41:44;;;;;;;17.30;6.47;;;;;;;6.73;100.00;97994.06;5043537;28;20032;-82
2024/02/27 03:44:10;;;;;;;12.48;5.28;;;;;;;6.77;100.00;98005.22;5023622;28;20021;-81
2024/02/27 03:46:35;;;;;;;10.88;5.47;;;;;;;6.87;100.00;98019.13;5019885;28;20029;-84
2024/02/27 03:49:00;;;;;;;11.05;5.45;;;;;;;6.81;100.00;98017.22;5031759;28;20022;-83
2024/02/27 03:51:25;;;;;;;13.07;5.53;;;;;;;6.79;100.00;98030.06;5018829;28;20328;-83
2024/02/27 03:53:51;;;;;;;12.27;5.88;;;;;;;6.61;100.00;98006.38;5020314;28;20025;-84
2024/02/27 03:56:16;;;;;;;12.90;5.72;;;;;;;6.65;100.00;98012.19;5035180;28;20021;-84
2024/02/27 03:58:41;;;;;;;9.13;5.05;;;;;;;6.63;100.00;98022.28;5023764;28;20109;-84
2024/02/27 04:01:07;;;;;;;10.93;5.53;;;;;;;6.67;100.00;98043.22;5020541;28;20033;-83
2024/02/27 04:03:32;;;;;;;11.05;6.03;;;;;;;6.59;100.00;98046.06;5029530;28;20041;-84
2024/02/27 04:05:57;;;;;;;12.93;5.82;;;;;;;6.60;100.00;98031.56;5039097;28;20079;-82
2024/02/27 04:08:22;;;;;;;9.93;5.55;;;;;;;6.58;100.00;98045.22;5044601;28;20063;-80
2024/02/27 04:10:48;;;;;;;17.42;6.18;;;;;;;6.46;100.00;98022.59;5039697;28;20025;-80
2024/02/27 04:13:13;;;;;;;11.50;5.93;;;;;;;6.51;100.00;98043.53;5021977;28;20213;-79
2024/02/27 04:15:39;;;;;;;15.05;6.25;;;;;;;6.57;100.00;98056.16;5029791;28;20022;-79
2024/02/27 04:18:05;;;;;;;11.55;5.78;;;;;;;6.58;100.00;98066.72;5036089;28;20017;-80
2024/02/27 04:20:30;;;;;;;12.90;5.95;;;;;;;6.46;100.00;98038.72;5038971;28;20198;-77
2024/02/27 04:22:56;;;;;;;11.35;5.85;;;;;;;6.47;100.00;98048.47;5029085;28;20012;-77
2024/02/27 04:25:21;;;;;;;12.50;5.88;;;;;;;6.35;100.00;98028.53;5032167;28;20224;-78
2024/02/27 04:27:46;;;;;;;13.15;6.18;;;;;;;6.44;100.00;98046.16;5032226;28;20032;-78
2024/02/27 04:30:12;;;;;;;12.75;7.00;;;;;;;6.53;100.00;98057.59;5036610;28;20035;-78
2024/02/27 04:32:37;;;;;;;14.32;7.05;;;;;;;6.47;100.00;98036.84;5033473;28;20021;-78
2024/02/27 04:35:05;;;;;;;13.90;6.93;;;;;;;6.56;100.00;98063.41;5033693;28;20017;-78
2024/02/27 04:37:30;;;;;;;12.02;6.47;;;;;;;6.50;100.00;98049.94;5010529;28;20022;-78
2024/02/27 04:39:55;;;;;;;13.18;6.32;;;;;;;6.49;100.00;98053.63;5028628;28;20519;-78
2024/02/27 04:42:21;;;;;;;15.00;7.40;;;;;;;6.24;100.00;98018.31;5042108;28;20069;-79
2024/02/27 04:44:46;;;;;;;13.23;5.90;;;;;;;6.31;100.00;98043.34;5045904;28;20021;-80
2024/02/27 04:47:12;;;;;;;13.90;6.38;;;;;;;6.41;100.00;98054.59;5022056;28;20032;-80
2024/02/27 04:49:37;;;;;;;13.48;7.15;;;;;;;6.38;100.00;98073.81;5040978;28;20312;-80
2024/02/27 04:52:03;;;;;;;15.73;7.03;;;;;;;6.38;100.00;98081.03;5020136;28;20105;-80
2024/02/27 04:54:28;;;;;;;13.32;6.78;;;;;;;6.30;100.00;98072.09;5038828;28;20032;-78
2024/02/27 04:56:54;;;;;;;12.75;7.07;;;;;;;6.48;100.00;98097.66;5044477;28;20018;-79
2024/02/27 04:59:19;;;;;;;14.88;6.82;;;;;;;6.39;100.00;98074.63;5031896;28;20037;-79
2024/02/27 05:01:48;;;;;;;14.32;6.90;;;;;;;6.55;100.00;98107.44;5039558;28;20047;-78
2024/02/27 05:04:14;;;;;;;14.80;7.78;;;;;;;6.53;100.00;98095.22;5042315;28;20029;-81
2024/02/27 05:06:40;;;;;;;15.73;7.75;;;;;;;6.73;100.00;98090.81;5048602;28;20024;-79
2024/02/27 05:09:06;;;;;;;14.13;7.40;;;;;;;6.67;100.00;98091.59;5047538;28;20213;-79
2024/02/27 05:11:31;;;;;;;16.30;8.23;;;;;;;6.52;100.00;98078.28;5063132;28;20025;-76
2024/02/27 05:13:56;;;;;;;14.52;7.25;;;;;;;6.65;100.00;98106.25;5034756;28;20049;-76
2024/02/27 05:16:22;;;;;;;14.27;6.88;;;;;;;6.70;100.00;98110.00;5044872;28;20040;-75
2024/02/27 05:18:47;;;;;;;13.02;7.50;;;;;;;6.57;100.00;98097.28;5026126;28;20021;-75
2024/02/27 05:21:12;;;;;;;18.45;7.97;;;;;;;6.60;100.00;98104.13;5042915;28;20092;-76
2024/02/27 05:23:38;;;;;;;15.15;7.90;;;;;;;6.68;100.00;98127.34;5022573;28;20087;-76
2024/02/27 05:26:04;;;;;;;14.25;7.63;;;;;;;6.51;100.00;98116.06;5036934;28;20033;-74
2024/02/27 05:28:29;;;;;;;15.65;8.25;;;;;;;6.47;100.00;98104.03;5046832;28;20045;-77
2024/02/27 05:30:55;;;;;;;16.65;9.20;;;;;;;6.74;100.00;98135.47;5040301;28;20022;-74
2024/02/27 05:33:20;;;;;;;16.48;9.43;;;;;;;6.77;100.00;98127.03;5041745;28;20222;-75
2024/02/27 05:35:46;;;;;;;18.38;9.23;;;;;;;6.81;100.00;98135.53;5028143;28;20021;-74
2024/02/27 05:38:11;;;;;;;16.42;8.98;;;;;;;6.63;100.00;98122.59;5033309;28;20375;-75
2024/02/27 05:40:36;;;;;;;16.08;8.57;;;;;;;6.57;100.00;98121.47;5043451;28;20029;-77
2024/02/27 05:43:02;;;;;;;17.88;9.88;;;;;;;6.73;100.00;98131.16;5033021;28;20017;-75
2024/02/27 05:45:28;;;;;;;18.25;9.52;;;;;;;6.64;100.00;98118.88;5025165;28;20033;-76
2024/02/27 05:47:53;;;;;;;17.92;8.77;;;;;;;6.69;100.00;98137.94;5038163;28;20356;-76
2024/02/27 05:50:18;;;;;;;17.48;9.30;;;;;;;6.69;100.00;98135.25;5029286;28;20028;-76
2024/02/27 05:52:43;;;;;;;18.40;10.18;;;;;;;6.62;100.00;98141.59;5025483;28;20068;-80
2024/02/27 05:55:09;;;;;;;20.08;9.35;;;;;;;6.64;100.00;98161.88;5026466;28;20382;-80
2024/02/27 05:57:34;;;;;;;20.65;10.27;;;;;;;6.55;100.00;98149.59;5044128;28;20025;-80
2024/02/27 05:59:59;;;;;;;21.10;9.95;;;;;;;6.45;100.00;98130.28;5032768;28;20036;-80
2024/02/27 06:02:25;;;;;;;17.20;9.55;;;;;;;6.59;100.00;98164.31;5028084;28;20029;-76
2024/02/27 06:04:50;;;;;;;20.23;9.63;;;;;;;6.52;100.00;98148.13;5033535;28;20080;-75
2024/02/27 06:07:16;;;;;;;21.10;9.90;;;;;;;6.51;100.00;98151.00;5035193;28;20096;-76
2024/02/27 06:09:41;;;;;;;21.42;10.85;;;;;;;6.64;100.00;98169.94;5044227;28;20312;-75
2024/02/27 06:12:07;;;;;;;18.77;9.50;;;;;;;6.44;100.00;98147.41;5039949;28;20032;-81
2024/02/27 06:14:32;;;;;;;23.25;10.85;;;;;;;6.49;100.00;98155.72;5037809;28;20321;-81
2024/02/27 06:16:57;;;;;;;22.02;10.32;;;;;;;6.63;100.00;98189.78;5036839;28;20033;-75
2024/02/27 06:19:26;;;;;;;20.15;10.40;;;;;;;6.60;100.00;98192.84;5023404;28;20025;-74
2024/02/27 06:24:38;;;;;;;23.35;10.88;;;;;;;6.54;100.00;98199.00;5043572;28;20396;-74
2024/02/27 06:27:04;;;;;;;27.50;10.27;;;;;;;6.53;100.00;98189.28;5035165;28;20046;-77
2024/02/27 06:29:29;;;;;;;23.38;10.77;;;;;;;6.54;100.00;98199.81;5036917;28;20021;-75
2024/02/27 06:31:54;;;;;;;18.45;9.80;;;;;;;6.43;100.00;98194.13;5031016;28;20093;-75
2024/02/27 06:34:20;;;;;;;21.40;11.45;;;;;;;6.50;100.00;98213.84;5024824;28;20029;-74
2024/02/27 06:36:50;;;;;;;24.35;11.10;;;;;;;6.46;100.00;98218.75;5030700;28;20036;-75
2024/02/27 06:39:15;;;;;;;21.75;10.77;;;;;;;6.47;100.00;98215.06;5016531;28;21713;-74
2024/02/27 06:41:40;;;;;;;20.70;10.88;;;;;;;6.56;100.00;98226.50;5040019;28;20060;-75
2024/02/27 06:44:07;;;;;;;23.67;11.25;;;;;;;6.58;100.00;98229.84;5045187;28;20317;-75
2024/02/27 06:46:32;;;;;;;27.45;12.32;;;;;;;6.54;100.00;98228.56;5042447;28;20097;-73
2024/02/27 06:48:57;;;;;;;23.15;10.05;;;;;;;6.52;100.00;98225.22;5053684;28;20033;-72
2024/02/27 06:51:22;;;;;;;24.55;11.88;;;;;;;6.54;100.00;98226.69;5042967;28;20048;-73
2024/02/27 06:53:48;;;;;;;23.85;10.32;;;;;;;6.68;100.00;98245.63;5042687;28;20025;-74
2024/02/27 06:56:22;;;;;;;20.30;11.88;;;;;;;6.61;100.00;98229.47;5035214;28;20021;-74
2024/02/27 06:58:50;;;;;;;22.65;11.52;;;;;;;6.66;100.00;98236.94;5024259;28;20325;-74
2024/02/27 07:01:15;;;;;;;22.42;11.07;;;;;;;6.63;100.00;98221.19;5028502;28;20091;-74
2024/02/27 07:03:40;;;;;;;18.58;10.10;;;;;;;6.68;100.00;98233.03;5030973;28;20321;-74
2024/02/27 07:06:07;;;;;;;21.60;11.15;;;;;;;6.72;100.00;98237.00;5036206;28;20021;-74
2024/02/27 07:08:33;;;;;;;22.48;11.13;;;;;;;6.79;100.00;98248.66;5018271;28;20034;-73
2024/02/27 07:10:59;;;;;;;21.65;10.20;;;;;;;6.77;100.00;98242.63;5040685;28;20335;-76
2024/02/27 07:13:25;;;;;;;25.30;11.30;;;;;;;6.73;100.00;98235.13;5032155;28;20115;-75
2024/02/27 07:15:51;;;;;;;21.70;11.93;;;;;;;6.79;100.00;98239.75;5034938;28;20097;-73
2024/02/27 07:18:17;;;;;;;18.83;10.70;;;;;;;6.87;100.00;98236.09;5044293;28;20031;-74
2024/02/27 07:20:45;;;;;;;22.50;10.32;;;;;;;6.95;100.00;98244.03;5042596;28;20033;-75
2024/02/27 07:23:13;;;;;;;21.05;11.43;;;;;;;6.91;100.00;98229.31;5023198;28;20017;-75
2024/02/27 07:25:38;;;;;;;23.35;11.30;;;;;;;6.88;100.00;98222.44;5039881;28;20055;-74
2024/02/27 07:28:05;;;;;;;24.48;12.27;;;;;;;7.02;100.00;98244.91;5020447;28;20030;-74
2024/02/27 07:30:30;;;;;;;20.48;10.60;;;;;;;7.10;100.00;98243.94;5025447;28;20728;-73
2024/02/27 07:32:56;;;;;;;23.58;11.35;;;;;;;6.96;100.00;98216.09;5032216;28;20020;-72
2024/02/27 07:35:21;;;;;;;25.27;11.73;;;;;;;7.18;100.00;98249.19;5034363;28;20069;-75
2024/02/27 07:37:46;;;;;;;29.27;11.48;;;;;;;7.30;100.00;98257.53;5016767;28;20037;-71
2024/02/27 07:40:12;;;;;;;27.27;12.63;;;;;;;7.34;100.00;98240.00;5020719;28;20028;-71
2024/02/27 07:42:37;;;;;;;22.15;11.23;;;;;;;7.35;100.00;98241.66;5034834;28;20030;-71
2024/02/27 07:45:04;;;;;;;22.77;12.52;;;;;;;7.46;100.00;98258.06;5021551;28;20025;-72
2024/02/27 07:47:31;;;;;;;22.98;11.75;;;;;;;7.35;100.00;98222.81;5039812;28;20030;-78
2024/02/27 07:49:57;;;;;;;24.75;12.18;;;;;;;7.63;100.00;98241.63;5028760;28;20025;-70
2024/02/27 07:52:22;;;;;;;26.15;12.48;;;;;;;7.92;100.00;98250.47;5032545;28;20048;-71
2024/02/27 07:54:47;;;;;;;24.02;12.52;;;;;;;7.98;100.00;98261.25;5039452;28;20099;-72
2024/02/27 07:57:13;;;;;;;21.40;12.25;;;;;;;7.93;100.00;98247.56;5036557;28;20021;-72
2024/02/27 07:59:38;;;;;;;24.77;12.02;;;;;;;7.95;100.00;98256.28;5028230;28;20021;-71
2024/02/27 08:02:04;;;;;;;26.02;12.88;;;;;;;7.77;100.00;98223.66;5028745;28;20029;-71
2024/02/27 08:04:29;;;;;;;22.98;12.90;;;;;;;8.06;100.00;98247.63;5031180;28;20143;-71
2024/02/27 08:06:54;;;;;;;24.13;12.32;;;;;;;8.19;100.00;98249.53;5031338;28;20045;-71
2024/02/27 08:09:20;;;;;;;25.70;12.48;;;;;;;8.28;100.00;98263.69;5036796;28;20021;-71
2024/02/27 08:11:45;;;;;;;27.00;13.23;;;;;;;8.39;100.00;98236.19;5029711;28;20067;-71
2024/02/27 08:14:10;;;;;;;23.48;12.10;;;;;;;8.73;100.00;98266.75;5040086;28;20101;-71
2024/02/27 08:16:36;;;;;;;24.73;13.02;;;;;;;8.91;100.00;98266.16;5030632;28;20021;-71
2024/02/27 08:19:04;;;;;;;27.10;14.07;;;;;;;9.10;100.00;98270.72;5027334;28;20025;-72
2024/02/27 08:21:33;;;;;;;27.45;13.27;;;;;;;9.53;100.00;98269.44;5036716;28;20080;-71
2024/02/27 08:23:58;;;;;;;;;;;;;;;10.12;100.00;98270.38;5033725;28;20280;-71
2024/02/27 08:26:24;;;;;;;26.27;12.70;;;;;;;10.62;100.00;98284.09;5027372;28;19912;-72
2024/02/27 08:28:49;;;;;;;23.02;12.45;;;;;;;11.18;100.00;98273.31;5034603;28;20074;-72
2024/02/27 08:31:15;;;;;;;23.73;12.90;;;;;;;11.22;100.00;98262.06;5037056;28;20076;-72
2024/02/27 08:33:41;;;;;;;23.48;13.23;;;;;;;11.39;100.00;98284.81;5030044;28;20037;-73
2024/02/27 08:36:07;;;;;;;24.85;12.90;;;;;;;11.41;100.00;98280.00;5040971;28;20087;-72
2024/02/27 08:38:32;;;;;;;22.75;12.82;;;;;;;11.59;100.00;98279.22;5033368;28;20333;-72
2024/02/27 08:41:00;;;;;;;21.30;12.88;;;;;;;11.41;100.00;98272.69;5039877;28;20044;-72
2024/02/27 08:43:25;;;;;;;26.85;12.77;;;;;;;11.33;100.00;98270.28;5029486;28;20029;-72
2024/02/27 08:45:50;;;;;;;22.88;12.55;;;;;;;11.04;100.00;98266.34;5037888;28;20029;-73
2024/02/27 08:48:16;;;;;;;25.60;13.50;;;;;;;10.82;100.00;98282.13;5040630;28;20092;-72
2024/02/27 08:50:45;;;;;;;24.38;13.10;;;;;;;10.67;100.00;98293.22;5037900;28;20037;-72
2024/02/27 08:53:11;;;;;;;;;;;;;;;10.96;100.00;98286.38;5049490;28;20028;-73
2024/02/27 08:55:37;;;;;;;23.92;12.23;;;;;;;11.37;100.00;98259.81;5053322;28;19905;-73
2024/02/27 08:58:02;;;;;;;22.25;12.05;;;;;;;11.44;100.00;98281.44;5055608;28;20079;-72
2024/02/27 09:00:28;;;;;;;23.23;11.52;;;;;;;11.51;100.00;98245.13;5049387;28;20068;-72
2024/02/27 09:02:53;;;;;;;23.20;12.82;;;;;;;11.63;100.00;98270.44;5050010;28;20025;-73
2024/02/27 09:05:18;;;;;;;22.85;12.98;;;;;;;11.77;100.00;98254.88;5047927;28;20043;-73
2024/02/27 09:07:44;;;;;;;23.20;13.45;;;;;;;11.81;100.00;98228.94;5038257;28;20061;-73
2024/02/27 09:10:10;;;;;;;23.38;13.27;;;;;;;12.11;100.00;98268.09;5057027;28;20021;-72
2024/02/27 09:12:35;;;;;;;21.58;12.23;;;;;;;12.21;100.00;98268.41;5050117;28;20045;-72
2024/02/27 09:15:00;;;;;;;21.80;12.27;;;;;;;12.54;100.00;98276.09;5054436;28;20024;-73
2024/02/27 09:17:26;;;;;;;23.23;12.32;;;;;;;12.69;100.00;98270.28;5050432;28;20040;-72
2024/02/27 09:19:51;;;;;;;28.23;13.70;;;;;;;13.28;100.00;98265.00;5047805;28;20014;-72
2024/02/27 09:22:17;;;;;;;22.60;11.55;;;;;;;13.38;100.00;98274.25;5039691;28;20036;-73
2024/02/27 09:24:42;;;;;;;24.23;12.20;;;;;;;12.78;100.00;98246.34;5052214;28;20009;-73
2024/02/27 09:27:07;;;;;;;23.60;13.25;;;;;;;12.31;100.00;98268.66;5057502;28;20063;-72
2024/02/27 09:29:33;;;;;;;24.48;13.27;;;;;;;11.41;100.00;98234.78;5066671;22;20108;-72
2024/02/27 09:31:58;;;;;;;25.00;13.35;;;;;;;11.78;100.00;98277.38;5082626;28;20040;-69
2024/02/27 09:34:24;;;;;;;25.85;12.95;;;;;;;12.27;100.00;98289.19;5089074;28;20028;-68
2024/02/27 09:36:49;;;;;;;22.27;12.43;;;;;;;13.36;100.00;98276.38;5084550;28;20035;-68
2024/02/27 09:39:14;;;;;;;20.75;12.55;;;;;;;14.09;100.00;98287.00;5075411;28;20021;-68
2024/02/27 09:41:51;;;;;;;22.30;12.70;;;;;;;14.45;100.00;98286.69;5072142;28;20037;-69
2024/02/27 09:44:16;;;;;;;22.30;12.10;;;;;;;14.59;100.00;98276.41;5082962;28;20039;-69
2024/02/27 09:46:45;;;;;;;21.83;11.85;;;;;;;14.92;100.00;98285.72;5068126;28;20024;-69
2024/02/27 09:49:11;;;;;;;18.33;11.45;;;;;;;15.12;100.00;98283.38;5076665;28;20027;-69
2024/02/27 09:51:38;;;;;;;21.38;12.45;;;;;;;15.29;100.00;98282.56;5072778;28;20032;-69
2024/02/27 09:54:05;;;;;;;19.95;12.75;;;;;;;15.30;100.00;98271.41;5078665;28;20020;-69
2024/02/27 09:56:32;;;;;;;18.50;11.93;;;;;;;15.48;100.00;98272.22;5067326;28;20087;-69
2024/02/27 09:58:59;;;;;;;23.98;12.90;;;;;;;15.22;100.00;98273.72;5064945;28;20024;-69
2024/02/27 10:01:28;;;;;;;21.20;12.27;;;;;;;15.41;100.00;98261.50;5061828;28;20021;-69
2024/02/27 10:03:55;;;;;;;21.10;12.48;;;;;;;15.87;100.00;98258.69;5062833;28;20328;-72
2024/02/27 10:06:22;;;;;;;23.15;12.50;;;;;;;16.14;100.00;98275.16;5066951;28;20095;-70
2024/02/27 10:08:56;;;;;;;21.23;12.82;;;;;;;15.80;100.00;98252.56;5061578;28;20039;-72
2024/02/27 10:11:21;;;;;;;20.77;12.35;;;;;;;15.50;100.00;98278.28;5071841;28;20366;-73
2024/02/27 10:13:47;;;;;;;21.48;13.55;;;;;;;14.58;100.00;98272.00;5067326;28;20044;-78
2024/02/27 10:16:13;;;;;;;23.85;13.68;;;;;;;13.86;100.00;98276.97;5063320;28;20029;-77
2024/02/27 10:18:39;;;;;;;22.73;13.18;;;;;;;13.06;100.00;98289.16;5066844;28;20036;-70
2024/02/27 10:21:05;;;;;;;24.52;13.65;;;;;;;12.74;100.00;98283.97;5071511;28;20033;-70
2024/02/27 10:23:31;;;;;;;22.42;13.77;;;;;;;12.97;100.00;98288.66;5073275;28;20028;-70
2024/02/27 10:26:08;;;;;;;20.65;12.95;;;;;;;12.78;100.00;98282.44;5079100;28;20074;-69
2024/02/27 10:28:33;;;;;;;25.25;14.10;;;;;;;12.59;100.00;98283.56;5067939;28;20028;-69
2024/02/27 10:30:58;;;;;;;24.48;14.27;;;;;;;12.53;100.00;98296.16;5071648;28;20025;-69
2024/02/27 10:33:24;;;;;;;26.35;14.48;;;;;;;12.38;100.00;98288.41;5065703;28;20330;-69
2024/02/27 10:35:52;;;;;;;25.42;14.13;;;;;;;12.60;100.00;98285.19;5064692;28;20032;-69
2024/02/27 10:38:21;;;;;;;27.65;14.68;;;;;;;12.17;100.00;98269.88;5058797;28;20021;-69
2024/02/27 10:40:47;;;;;;;24.02;13.90;;;;;;;12.25;100.00;98288.56;5071620;28;20052;-69
2024/02/27 10:43:13;;;;;;;24.90;14.50;;;;;;;12.61;100.00;98286.88;5070347;28;20378;-69
2024/02/27 10:45:39;;;;;;;27.35;14.07;;;;;;;12.18;100.00;98287.81;5059357;28;20067;-69
2024/02/27 10:48:05;;;;;;;25.42;14.27;;;;;;;12.10;100.00;98290.81;5065115;28;20028;-69
2024/02/27 10:50:32;;;;;;;25.08;13.55;;;;;;;12.40;100.00;98290.91;5068565;28;20079;-69
2024/02/27 10:52:59;;;;;;;26.02;14.38;;;;;;;12.32;100.00;98297.47;5073579;28;20032;-69
2024/02/27 10:55:26;;;;;;;28.13;14.52;;;;;;;12.71;100.00;98298.84;5062413;28;20233;-70
2024/02/27 10:57:53;;;;;;;27.83;14.32;;;;;;;12.49;100.00;98301.19;5065443;28;20032;-70
2024/02/27 11:00:19;;;;;;;24.05;13.90;;;;;;;12.46;100.00;98312.50;5052746;28;20131;-69
2024/02/27 11:02:49;;;;;;;25.80;13.93;;;;;;;12.10;100.00;98312.50;5062235;28;20036;-69
2024/02/27 11:05:15;;;;;;;28.60;14.68;;;;;;;12.16;100.00;98298.91;5057356;28;20021;-69
2024/02/27 11:07:42;;;;;;;25.20;13.15;;;;;;;12.30;100.00;98309.59;5067118;28;20029;-70
2024/02/27 11:10:09;;;;;;;25.10;14.48;;;;;;;12.27;100.00;98319.00;5069692;28;20308;-70
2024/02/27 11:12:36;;;;;;;23.10;13.23;;;;;;;12.23;100.00;98317.78;5070940;28;20175;-69
2024/02/27 11:15:04;;;;;;;23.63;13.35;;;;;;;12.27;100.00;98321.72;5068644;28;20033;-69
2024/02/27 11:17:33;;;;;;;24.85;13.60;;;;;;;12.16;100.00;98327.91;5063630;28;20320;-70
2024/02/27 11:19:58;;;;;;;;;;;;;;;12.25;100.00;98327.34;5067140;28;20039;-70